createdAt,value
2023-05-15T00:02:26.822Z,13.12
2023-05-15T00:04:54.692Z,13.07
2023-05-15T00:07:22.451Z,13.03
2023-05-15T00:09:50.250Z,13.01
2023-05-15T00:12:18.270Z,12.99
2023-05-15T00:14:45.946Z,12.95
2023-05-15T00:17:13.614Z,12.89
2023-05-15T00:19:42.729Z,12.80
2023-05-15T00:22:10.581Z,12.75
2023-05-15T00:24:38.337Z,12.69
2023-05-15T00:27:06.427Z,12.65
2023-05-15T00:29:34.317Z,12.60
2023-05-15T00:32:01.968Z,12.57
2023-05-15T00:34:30.028Z,12.53
2023-05-15T00:37:00.769Z,12.49
2023-05-15T00:39:28.680Z,12.47
2023-05-15T00:41:59.539Z,12.44
2023-05-15T00:44:30.825Z,12.41
2023-05-15T00:46:59.160Z,12.41
2023-05-15T00:49:29.566Z,12.34
2023-05-15T00:52:02.013Z,12.23
2023-05-15T00:54:29.876Z,12.16
2023-05-15T00:56:58.267Z,12.10
2023-05-15T00:59:27.014Z,12.06
2023-05-15T01:01:55.458Z,12.05
2023-05-15T01:04:23.290Z,12.02
2023-05-15T01:06:53.484Z,12.02
2023-05-15T01:09:25.077Z,12.02
2023-05-15T01:11:55.946Z,12.00
2023-05-15T01:14:23.605Z,11.98
2023-05-15T01:16:51.483Z,11.97
2023-05-15T01:19:19.496Z,11.95
2023-05-15T01:22:24.014Z,11.92
2023-05-15T01:25:15.125Z,11.91
2023-05-15T01:27:49.849Z,11.88
2023-05-15T01:30:23.401Z,11.85
2023-05-15T01:32:56.785Z,11.83
2023-05-15T01:35:30.091Z,11.80
2023-05-15T01:38:24.898Z,11.78
2023-05-15T01:40:58.261Z,11.74
2023-05-15T01:43:29.893Z,11.74
2023-05-15T01:45:59.377Z,11.73
2023-05-15T01:48:29.553Z,11.70
2023-05-15T01:51:02.308Z,11.67
2023-05-15T01:53:32.974Z,11.66
2023-05-15T01:56:01.119Z,11.65
2023-05-15T01:58:31.978Z,11.63
2023-05-15T02:01:01.924Z,11.57
2023-05-15T02:03:33.579Z,11.55
2023-05-15T02:06:02.657Z,11.52
2023-05-15T02:08:31.721Z,11.49
2023-05-15T02:11:01.660Z,11.46
2023-05-15T02:13:32.099Z,11.41
2023-05-15T02:15:59.882Z,11.36
2023-05-15T02:18:28.811Z,11.31
2023-05-15T02:21:01.006Z,11.27
2023-05-15T02:23:28.742Z,11.22
2023-05-15T02:26:09.769Z,11.17
2023-05-15T02:28:47.032Z,11.14
2023-05-15T02:31:23.755Z,11.10
2023-05-15T02:34:00.141Z,11.02
2023-05-15T02:36:33.391Z,11.01
2023-05-15T02:39:01.964Z,10.97
2023-05-15T02:41:33.029Z,10.90
2023-05-15T02:44:03.759Z,10.87
2023-05-15T02:46:32.938Z,10.81
2023-05-15T02:49:02.012Z,10.74
2023-05-15T02:51:30.149Z,10.69
2023-05-15T02:54:00.897Z,10.65
2023-05-15T02:56:28.607Z,10.61
2023-05-15T02:58:56.753Z,10.56
2023-05-15T03:01:25.938Z,10.52
2023-05-15T03:03:53.887Z,10.47
2023-05-15T03:06:21.660Z,10.43
2023-05-15T03:08:49.376Z,10.38
2023-05-15T03:11:19.232Z,10.33
2023-05-15T03:13:47.031Z,10.29
2023-05-15T03:16:14.734Z,10.23
2023-05-15T03:18:43.850Z,10.16
2023-05-15T03:21:11.544Z,10.07
2023-05-15T03:23:39.402Z,10.03
2023-05-15T03:26:07.052Z,10.00
2023-05-15T03:28:35.083Z,9.97
2023-05-15T03:31:04.865Z,9.95
2023-05-15T03:33:32.901Z,9.89
2023-05-15T03:36:01.916Z,9.87
2023-05-15T03:38:29.617Z,9.87
2023-05-15T03:40:57.322Z,9.86
2023-05-15T03:43:25.240Z,9.83
2023-05-15T03:45:52.961Z,9.81
2023-05-15T03:48:20.754Z,9.78
2023-05-15T03:50:48.556Z,9.76
2023-05-15T03:53:17.726Z,9.78
2023-05-15T03:55:46.201Z,9.79
2023-05-15T03:58:13.879Z,9.78
2023-05-15T04:00:41.593Z,9.78
2023-05-15T04:03:09.438Z,9.80
2023-05-15T04:05:37.388Z,9.79
2023-05-15T04:08:05.676Z,9.79
2023-05-15T04:10:34.743Z,9.79
2023-05-15T04:13:02.460Z,9.78
2023-05-15T04:15:31.180Z,9.75
2023-05-15T04:17:59.012Z,9.73
2023-05-15T04:20:26.790Z,9.73
2023-05-15T04:22:54.891Z,9.74
2023-05-15T04:25:22.776Z,9.74
2023-05-15T04:27:52.246Z,9.77
2023-05-15T04:30:20.125Z,9.78
2023-05-15T04:32:47.932Z,9.78
2023-05-15T04:35:15.783Z,9.82
2023-05-15T04:37:45.613Z,9.83
2023-05-15T04:40:16.232Z,9.85
2023-05-15T04:42:44.144Z,9.87
2023-05-15T04:45:13.240Z,9.86
2023-05-15T04:47:41.054Z,9.88
2023-05-15T04:50:09.659Z,9.90
2023-05-15T04:52:37.406Z,9.91
2023-05-15T04:55:05.892Z,9.97
2023-05-15T04:57:33.602Z,10.02
2023-05-15T05:00:01.314Z,10.07
2023-05-15T05:02:30.365Z,10.16
2023-05-15T05:04:58.231Z,10.20
2023-05-15T05:07:25.999Z,10.25
2023-05-15T05:09:53.654Z,10.30
2023-05-15T05:12:21.325Z,10.37
2023-05-15T05:14:49.333Z,10.43
2023-05-15T05:17:17.105Z,10.51
2023-05-15T05:19:46.206Z,10.58
2023-05-15T05:22:13.933Z,10.63
2023-05-15T05:24:41.744Z,10.70
2023-05-15T05:27:09.526Z,10.79
2023-05-15T05:29:37.275Z,10.86
2023-05-15T05:32:05.435Z,10.94
2023-05-15T05:34:33.207Z,11.02
2023-05-15T05:37:02.407Z,11.12
2023-05-15T05:39:30.480Z,11.25
2023-05-15T05:41:58.144Z,11.36
2023-05-15T05:44:26.317Z,11.47
2023-05-15T05:46:54.366Z,11.60
2023-05-15T05:49:22.096Z,11.72
2023-05-15T05:51:49.774Z,11.85
2023-05-15T05:54:19.212Z,12.02
2023-05-15T05:56:47.097Z,12.17
2023-05-15T05:59:14.794Z,12.30
2023-05-15T06:01:43.332Z,12.44
2023-05-15T06:04:11.333Z,12.57
2023-05-15T06:06:39.080Z,12.69
2023-05-15T06:09:06.925Z,12.82
2023-05-15T06:11:36.072Z,12.96
2023-05-15T06:14:03.924Z,13.08
2023-05-15T06:16:31.683Z,13.23
2023-05-15T06:18:59.422Z,13.36
2023-05-15T06:21:27.099Z,13.49
2023-05-15T06:23:54.804Z,13.60
2023-05-15T06:26:22.907Z,13.73
2023-05-15T06:28:51.996Z,13.86
2023-05-15T06:31:19.682Z,13.98
2023-05-15T06:33:47.460Z,14.09
2023-05-15T06:36:15.148Z,14.21
2023-05-15T06:38:42.848Z,14.33
2023-05-15T06:41:10.626Z,14.45
2023-05-15T06:43:38.544Z,14.59
2023-05-15T06:46:07.700Z,14.71
2023-05-15T06:48:35.410Z,14.81
2023-05-15T06:51:03.651Z,14.91
2023-05-15T06:53:31.582Z,14.99
2023-05-15T06:55:59.296Z,15.10
2023-05-15T06:58:26.982Z,15.23
2023-05-15T07:00:56.241Z,15.36
2023-05-15T07:03:26.670Z,15.48
2023-05-15T07:05:54.499Z,15.60
2023-05-15T07:08:22.423Z,15.70
2023-05-15T07:10:50.674Z,15.84
2023-05-15T07:13:18.977Z,15.99
2023-05-15T07:15:46.790Z,16.14
2023-05-15T07:18:14.762Z,16.26
2023-05-15T07:20:43.896Z,16.38
2023-05-15T07:23:11.972Z,16.53
2023-05-15T07:25:40.833Z,16.68
2023-05-15T07:28:08.817Z,16.87
2023-05-15T07:30:36.625Z,17.07
2023-05-15T07:33:04.586Z,17.23
2023-05-15T07:35:32.269Z,17.34
2023-05-15T07:38:01.440Z,17.47
2023-05-15T07:40:29.193Z,17.58
2023-05-15T07:42:57.116Z,17.78
2023-05-15T07:45:24.974Z,17.97
2023-05-15T07:47:52.863Z,18.13
2023-05-15T07:50:20.629Z,18.31
2023-05-15T07:52:48.397Z,18.46
2023-05-15T07:55:17.398Z,18.58
2023-05-15T07:57:45.677Z,18.69
2023-05-15T08:00:14.629Z,18.85
2023-05-15T08:02:46.247Z,19.03
2023-05-15T08:05:14.053Z,19.17
2023-05-15T08:07:41.754Z,19.30
2023-05-15T08:10:10.328Z,19.42
2023-05-15T08:12:39.446Z,19.53
2023-05-15T08:15:08.415Z,19.63
2023-05-15T08:17:36.093Z,19.77
2023-05-15T08:20:04.950Z,19.89
2023-05-15T08:22:32.653Z,20.01
2023-05-15T08:25:00.910Z,20.09
2023-05-15T08:27:28.550Z,20.20
2023-05-15T08:29:58.600Z,20.28
2023-05-15T08:32:26.797Z,20.30
2023-05-15T08:34:54.540Z,20.29
2023-05-15T08:37:22.212Z,20.33
2023-05-15T08:39:49.935Z,20.33
2023-05-15T08:42:24.011Z,20.36
2023-05-15T08:44:52.040Z,20.35
2023-05-15T08:47:21.772Z,20.36
2023-05-15T08:49:56.500Z,20.39
2023-05-15T08:52:24.755Z,20.44
2023-05-15T08:54:53.727Z,20.51
2023-05-15T08:57:22.062Z,20.48
2023-05-15T08:59:50.987Z,20.55
2023-05-15T09:02:19.564Z,20.62
2023-05-15T09:04:48.755Z,20.71
2023-05-15T09:07:17.170Z,20.78
2023-05-15T09:09:46.278Z,20.88
2023-05-15T09:12:16.764Z,21.00
2023-05-15T09:14:45.037Z,21.13
2023-05-15T09:17:13.094Z,21.27
2023-05-15T09:19:41.084Z,21.36
2023-05-15T09:22:18.320Z,21.57
2023-05-15T09:24:48.125Z,21.82
2023-05-15T09:27:15.907Z,21.82
2023-05-15T09:29:43.719Z,21.94
2023-05-15T09:32:13.814Z,22.12
2023-05-15T09:34:43.778Z,22.38
2023-05-15T09:37:14.467Z,22.70
2023-05-15T09:39:44.875Z,22.86
2023-05-15T09:42:14.396Z,23.07
2023-05-15T09:44:42.736Z,23.35
2023-05-15T09:47:11.415Z,23.66
2023-05-15T09:49:39.429Z,24.01
2023-05-15T09:52:10.114Z,24.23
2023-05-15T09:54:38.725Z,24.22
2023-05-15T09:57:12.059Z,24.43
2023-05-15T09:59:44.530Z,24.58
2023-05-15T10:02:15.343Z,24.84
2023-05-15T10:04:42.963Z,25.06
2023-05-15T10:07:10.773Z,25.27
2023-05-15T10:09:39.162Z,25.44
2023-05-15T10:12:10.563Z,25.60
2023-05-15T10:14:38.409Z,25.67
2023-05-15T10:17:06.641Z,25.64
2023-05-15T10:19:37.581Z,25.82
2023-05-15T10:22:13.246Z,25.91
2023-05-15T10:24:43.117Z,25.79
2023-05-15T10:27:13.945Z,25.76
2023-05-15T10:29:42.332Z,25.94
2023-05-15T10:32:10.399Z,26.12
2023-05-15T10:34:38.536Z,26.37
2023-05-15T10:37:07.610Z,26.58
2023-05-15T10:39:39.951Z,26.79
2023-05-15T10:42:09.504Z,26.93
2023-05-15T10:44:38.474Z,27.01
2023-05-15T10:47:07.417Z,27.08
2023-05-15T10:49:36.080Z,27.11
2023-05-15T10:52:04.199Z,27.10
2023-05-15T10:54:31.922Z,27.03
2023-05-15T10:56:59.664Z,26.93
2023-05-15T10:59:35.079Z,26.60
2023-05-15T11:02:24.349Z,26.34
2023-05-15T11:04:56.715Z,26.31
2023-05-15T11:07:28.245Z,26.18
2023-05-15T11:09:56.924Z,26.05
2023-05-15T11:12:24.783Z,26.04
2023-05-15T11:15:21.060Z,26.13
2023-05-15T11:18:06.400Z,26.15
2023-05-15T11:20:38.638Z,26.22
2023-05-15T11:23:06.502Z,26.20
2023-05-15T11:25:35.907Z,26.01
2023-05-15T11:28:04.904Z,25.94
2023-05-15T11:30:38.165Z,25.94
2023-05-15T11:33:12.181Z,26.13
2023-05-15T11:35:42.183Z,26.42
2023-05-15T11:38:16.266Z,26.62
2023-05-15T11:40:49.841Z,26.77
2023-05-15T11:43:21.939Z,26.72
2023-05-15T11:45:52.807Z,26.60
2023-05-15T11:48:22.038Z,26.37
2023-05-15T11:50:53.589Z,26.23
2023-05-15T11:53:23.171Z,26.05
2023-05-15T11:55:54.346Z,25.76
2023-05-15T11:58:24.981Z,25.60
2023-05-15T12:00:54.447Z,25.42
2023-05-15T12:03:25.854Z,25.29
2023-05-15T12:05:59.820Z,25.12
2023-05-15T12:08:32.576Z,24.98
2023-05-15T12:11:01.606Z,24.89
2023-05-15T12:13:30.341Z,24.89
2023-05-15T12:15:58.478Z,24.97
2023-05-15T12:18:27.641Z,25.22
2023-05-15T12:20:55.905Z,25.23
2023-05-15T12:23:25.781Z,25.24
2023-05-15T12:25:58.383Z,25.22
2023-05-15T12:28:27.140Z,25.11
2023-05-15T12:30:55.328Z,25.11
2023-05-15T12:33:23.427Z,25.33
2023-05-15T12:35:58.277Z,25.46
2023-05-15T12:38:27.960Z,25.59
2023-05-15T12:40:56.962Z,25.85
2023-05-15T12:43:26.090Z,26.09
2023-05-15T12:45:54.440Z,26.30
2023-05-15T12:48:22.536Z,26.57
2023-05-15T12:50:51.532Z,26.54
2023-05-15T12:53:22.726Z,26.23
2023-05-15T12:55:52.085Z,26.21
2023-05-15T12:58:20.006Z,26.36
2023-05-15T13:00:48.644Z,26.52
2023-05-15T13:03:16.771Z,26.83
2023-05-15T13:05:45.985Z,27.00
2023-05-15T13:08:17.619Z,27.25
2023-05-15T13:10:47.798Z,27.42
2023-05-15T13:13:17.502Z,27.36
2023-05-15T13:15:46.104Z,27.09
2023-05-15T13:18:15.319Z,26.71
2023-05-15T13:20:44.709Z,26.45
2023-05-15T13:23:13.376Z,26.25
2023-05-15T13:25:41.067Z,26.12
2023-05-15T13:28:11.144Z,25.97
2023-05-15T13:30:41.645Z,25.87
2023-05-15T13:33:10.526Z,25.76
2023-05-15T13:35:39.222Z,25.63
2023-05-15T13:38:09.443Z,25.60
2023-05-15T13:43:32.597Z,25.78
2023-05-15T13:46:00.219Z,25.93
2023-05-15T13:48:27.856Z,26.02
2023-05-15T13:50:56.168Z,26.17
2023-05-15T13:53:23.786Z,26.25
2023-05-15T13:55:51.527Z,26.40
2023-05-15T13:58:19.284Z,26.41
2023-05-15T14:00:49.506Z,26.35
2023-05-15T14:03:17.600Z,26.38
2023-05-15T14:05:45.326Z,26.37
2023-05-15T14:08:12.958Z,26.03
2023-05-15T14:10:40.566Z,25.81
2023-05-15T14:13:08.165Z,25.84
2023-05-15T14:15:35.794Z,25.69
2023-05-15T14:18:04.995Z,25.46
2023-05-15T14:20:32.662Z,25.28
2023-05-15T14:23:00.268Z,25.10
2023-05-15T14:25:27.929Z,24.86
2023-05-15T14:27:55.680Z,24.67
2023-05-15T14:30:23.791Z,24.51
2023-05-15T14:32:51.797Z,24.51
2023-05-15T14:35:21.004Z,24.45
2023-05-15T14:37:48.607Z,24.32
2023-05-15T14:40:16.752Z,24.19
2023-05-15T14:42:44.373Z,24.19
2023-05-15T14:45:12.286Z,24.27
2023-05-15T14:47:40.592Z,24.24
2023-05-15T14:50:09.625Z,24.29
2023-05-15T14:52:38.606Z,24.17
2023-05-15T14:55:09.192Z,24.02
2023-05-15T14:57:37.679Z,23.87
2023-05-15T15:00:06.910Z,23.69
2023-05-15T15:02:34.928Z,23.57
2023-05-15T15:05:04.269Z,23.52
2023-05-15T15:07:31.899Z,23.43
2023-05-15T15:10:00.856Z,23.27
2023-05-15T15:12:28.495Z,23.14
2023-05-15T15:14:56.118Z,23.12
2023-05-15T15:17:23.751Z,23.08
2023-05-15T15:19:51.388Z,23.06
2023-05-15T15:22:18.960Z,23.01
2023-05-15T15:24:46.594Z,22.96
2023-05-15T15:27:15.499Z,22.92
2023-05-15T15:29:43.134Z,22.87
2023-05-15T15:32:11.081Z,22.87
2023-05-15T15:34:38.822Z,22.86
2023-05-15T15:37:06.570Z,22.93
2023-05-15T15:39:34.280Z,22.94
2023-05-15T15:42:03.973Z,23.00
2023-05-15T15:44:35.949Z,23.08
2023-05-15T15:47:03.670Z,23.14
2023-05-15T15:49:31.857Z,23.19
2023-05-15T15:51:59.534Z,23.28
2023-05-15T15:54:27.218Z,23.30
2023-05-15T15:56:55.015Z,23.22
2023-05-15T15:59:23.149Z,23.17
2023-05-15T16:01:52.779Z,23.08
2023-05-15T16:04:20.398Z,22.98
2023-05-15T16:06:48.524Z,22.85
2023-05-15T16:09:19.029Z,22.74
2023-05-15T16:11:46.640Z,22.62
2023-05-15T16:14:14.552Z,22.57
2023-05-15T16:16:42.286Z,22.53
2023-05-15T16:19:11.358Z,22.55
2023-05-15T16:21:39.111Z,22.57
2023-05-15T16:24:07.367Z,22.52
2023-05-15T16:26:35.170Z,22.46
2023-05-15T16:29:02.843Z,22.46
2023-05-15T16:31:31.167Z,22.45
2023-05-15T16:34:02.090Z,22.44
2023-05-15T16:36:33.135Z,22.42
2023-05-15T16:39:01.712Z,22.40
2023-05-15T16:41:29.656Z,22.32
2023-05-15T16:43:57.361Z,22.25
2023-05-15T16:46:25.018Z,22.14
2023-05-15T16:48:52.722Z,22.04
2023-05-15T16:51:21.457Z,21.97
2023-05-15T16:53:50.478Z,21.84
2023-05-15T16:56:18.142Z,21.73
2023-05-15T16:58:46.066Z,21.58
2023-05-15T17:01:13.783Z,21.44
2023-05-15T17:03:41.503Z,21.35
2023-05-15T17:06:09.394Z,21.27
2023-05-15T17:08:37.052Z,21.18
2023-05-15T17:11:06.158Z,21.09
2023-05-15T17:13:33.814Z,21.02
2023-05-15T17:16:01.505Z,20.95
2023-05-15T17:18:29.179Z,20.90
2023-05-15T17:20:56.880Z,20.80
2023-05-15T17:23:25.045Z,20.70
2023-05-15T17:25:52.738Z,20.61
2023-05-15T17:28:21.703Z,20.53
2023-05-15T17:30:49.507Z,20.46
2023-05-15T17:33:17.141Z,20.37
2023-05-15T17:35:44.920Z,20.26
2023-05-15T17:38:12.611Z,20.18
2023-05-15T17:40:40.740Z,20.12
2023-05-15T17:43:09.821Z,20.03
2023-05-15T17:45:38.923Z,19.93
2023-05-15T17:48:07.074Z,19.86
2023-05-15T17:50:37.965Z,19.81
2023-05-15T17:53:05.757Z,19.76
2023-05-15T17:55:33.584Z,19.69
2023-05-15T17:58:01.576Z,19.65
2023-05-15T18:00:29.233Z,19.61
2023-05-15T18:02:58.327Z,19.57
2023-05-15T18:05:27.667Z,19.52
2023-05-15T18:07:58.018Z,19.46
2023-05-15T18:10:25.976Z,19.41
2023-05-15T18:12:53.678Z,19.37
2023-05-15T18:15:21.528Z,19.34
2023-05-15T18:17:49.812Z,19.26
2023-05-15T18:20:18.887Z,19.18
2023-05-15T18:22:47.017Z,19.12
2023-05-15T18:25:15.078Z,19.04
2023-05-15T18:27:43.323Z,18.96
2023-05-15T18:30:12.159Z,18.90
2023-05-15T18:32:43.726Z,18.84
2023-05-15T18:35:13.962Z,18.79
2023-05-15T18:37:42.909Z,18.76
2023-05-15T18:40:11.644Z,18.68
2023-05-15T18:42:39.378Z,18.60
2023-05-15T18:45:08.549Z,18.53
2023-05-15T18:47:36.354Z,18.43
2023-05-15T18:50:04.110Z,18.35
2023-05-15T18:52:31.890Z,18.25
2023-05-15T18:55:01.420Z,18.19
2023-05-15T18:57:29.109Z,18.13
2023-05-15T18:59:56.828Z,18.10
2023-05-15T19:02:26.113Z,18.05
2023-05-15T19:04:54.481Z,18.03
2023-05-15T19:07:22.618Z,17.99
2023-05-15T19:09:50.393Z,17.94
2023-05-15T19:12:19.407Z,17.91
2023-05-15T19:14:47.134Z,17.84
2023-05-15T19:17:15.414Z,17.82
2023-05-15T19:19:43.262Z,17.78
2023-05-15T19:22:10.967Z,17.72
2023-05-15T19:24:38.659Z,17.68
2023-05-15T19:27:07.457Z,17.63
2023-05-15T19:29:36.499Z,17.55
2023-05-15T19:32:04.328Z,17.49
2023-05-15T19:34:32.101Z,17.43
2023-05-15T19:36:59.840Z,17.36
2023-05-15T19:39:27.550Z,17.30
2023-05-15T19:41:55.993Z,17.24
2023-05-15T19:44:23.891Z,17.20
2023-05-15T19:46:54.515Z,17.18
2023-05-15T19:49:22.284Z,17.15
2023-05-15T19:51:49.895Z,17.08
2023-05-15T19:54:17.570Z,17.04
2023-05-15T19:56:45.276Z,16.99
2023-05-15T19:59:12.916Z,16.95
2023-05-15T20:01:40.628Z,16.90
2023-05-15T20:04:09.653Z,16.86
2023-05-15T20:06:37.309Z,16.81
2023-05-15T20:09:05.020Z,16.79
2023-05-15T20:11:32.770Z,16.75
2023-05-15T20:14:00.688Z,16.71
2023-05-15T20:16:28.498Z,16.67
2023-05-15T20:18:56.218Z,16.62
2023-05-15T20:21:25.267Z,16.58
2023-05-15T20:23:52.924Z,16.54
2023-05-15T20:26:21.754Z,16.51
2023-05-15T20:28:49.407Z,16.49
2023-05-15T20:31:17.150Z,16.47
2023-05-15T20:33:44.889Z,16.45
2023-05-15T20:36:12.501Z,16.44
2023-05-15T20:38:41.596Z,16.42
2023-05-15T20:41:09.432Z,16.40
2023-05-15T20:43:38.538Z,16.37
2023-05-15T20:46:08.750Z,16.35
2023-05-15T20:48:36.664Z,16.33
2023-05-15T20:51:04.649Z,16.31
2023-05-15T20:53:32.285Z,16.26
2023-05-15T20:56:01.240Z,16.24
2023-05-15T20:58:28.892Z,16.21
2023-05-15T21:00:58.220Z,16.20
2023-05-15T21:03:25.901Z,16.18
2023-05-15T21:05:56.099Z,16.15
2023-05-15T21:08:24.948Z,16.10
2023-05-15T21:10:55.377Z,16.08
2023-05-15T21:13:24.384Z,16.05
2023-05-15T21:15:52.122Z,16.01
2023-05-15T21:18:19.859Z,16.00
2023-05-15T21:20:47.498Z,15.98
2023-05-15T21:23:15.104Z,15.94
2023-05-15T21:25:44.004Z,15.89
2023-05-15T21:28:11.636Z,15.86
2023-05-15T21:30:40.582Z,15.82
2023-05-15T21:33:08.369Z,15.81
2023-05-15T21:35:36.088Z,15.79
2023-05-15T21:38:03.702Z,15.78
2023-05-15T21:40:31.362Z,15.79
2023-05-15T21:42:59.048Z,15.77
2023-05-15T21:45:26.717Z,15.76
2023-05-15T21:47:55.792Z,15.75
2023-05-15T21:50:23.505Z,15.73
2023-05-15T21:52:51.648Z,15.74
2023-05-15T21:55:19.970Z,15.71
2023-05-15T21:57:47.598Z,15.69
2023-05-15T22:00:16.216Z,15.69
2023-05-15T22:02:44.099Z,15.66
2023-05-15T22:05:13.411Z,15.65
2023-05-15T22:07:41.324Z,15.64
2023-05-15T22:10:13.768Z,15.64
2023-05-15T22:12:41.393Z,15.62
2023-05-15T22:15:10.568Z,15.61
2023-05-15T22:17:38.885Z,15.57
2023-05-15T22:20:11.395Z,15.58
2023-05-15T22:22:42.812Z,15.54
2023-05-15T22:25:11.086Z,15.51
2023-05-15T22:27:38.873Z,15.46
2023-05-15T22:30:09.612Z,15.43
2023-05-15T22:32:37.622Z,15.36
2023-05-15T22:35:06.141Z,15.31
2023-05-15T22:37:34.018Z,15.22
2023-05-15T22:40:04.546Z,15.10
2023-05-15T22:42:32.521Z,15.03
2023-05-15T22:45:00.823Z,14.96
2023-05-15T22:47:29.249Z,14.91
2023-05-15T22:49:56.996Z,14.83
2023-05-15T22:52:25.260Z,14.75
2023-05-15T22:54:53.066Z,14.66
2023-05-15T22:57:22.213Z,14.58
2023-05-15T22:59:49.973Z,14.49
2023-05-15T23:02:17.748Z,14.39
2023-05-15T23:04:45.753Z,14.30
2023-05-15T23:07:13.653Z,14.23
2023-05-15T23:09:41.450Z,14.14
2023-05-15T23:12:09.391Z,14.07
2023-05-15T23:14:38.513Z,13.99
2023-05-15T23:17:06.637Z,13.92
2023-05-15T23:19:34.345Z,13.82
2023-05-15T23:22:02.262Z,13.76
2023-05-15T23:24:30.203Z,13.70
2023-05-15T23:26:57.900Z,13.60
2023-05-15T23:29:25.558Z,13.53
2023-05-15T23:31:57.097Z,13.49
2023-05-15T23:34:24.825Z,13.44
2023-05-15T23:36:52.525Z,13.38
2023-05-15T23:39:20.147Z,13.32
2023-05-15T23:41:59.537Z,13.27
2023-05-15T23:44:36.181Z,13.21
2023-05-15T23:47:16.282Z,13.13
2023-05-15T23:49:46.695Z,13.04
2023-05-15T23:52:17.349Z,12.99
2023-05-15T23:54:54.289Z,12.90
2023-05-15T23:57:24.856Z,12.84
2023-05-15T23:59:52.850Z,12.77
